sensor_id;sensor_type;location;lat;lon;timestamp;temperature;humidity
3912;DHT22;1971;51.778;10.330;2023-11-19T00:01:41;3.80;99.90
3912;DHT22;1971;51.778;10.330;2023-11-19T00:04:14;4.20;99.90
3912;DHT22;1971;51.778;10.330;2023-11-19T00:06:45;4.20;99.90
3912;DHT22;1971;51.778;10.330;2023-11-19T00:09:15;4.20;99.90
3912;DHT22;1971;51.778;10.330;2023-11-19T00:11:45;4.30;99.90
3912;DHT22;1971;51.778;10.330;2023-11-19T00:14:18;4.40;99.90
3912;DHT22;1971;51.778;10.330;2023-11-19T00:16:48;4.30;99.90
3912;DHT22;1971;51.778;10.330;2023-11-19T00:19:21;4.40;99.90
3912;DHT22;1971;51.778;10.330;2023-11-19T00:21:51;4.10;99.90
3912;DHT22;1971;51.778;10.330;2023-11-19T00:24:21;4.10;99.90
3912;DHT22;1971;51.778;10.330;2023-11-19T00:26:52;4.10;99.90
3912;DHT22;1971;51.778;10.330;2023-11-19T00:29:22;4.20;99.90
3912;DHT22;1971;51.778;10.330;2023-11-19T00:31:52;4.20;99.90
3912;DHT22;1971;51.778;10.330;2023-11-19T00:34:25;4.20;99.90
3912;DHT22;1971;51.778;10.330;2023-11-19T00:36:56;4.10;99.90
3912;DHT22;1971;51.778;10.330;2023-11-19T00:39:26;4.10;99.90
3912;DHT22;1971;51.778;10.330;2023-11-19T00:41:56;4.70;99.90
3912;DHT22;1971;51.778;10.330;2023-11-19T00:44:26;4.60;99.90
3912;DHT22;1971;51.778;10.330;2023-11-19T00:46:57;4.40;99.90
3912;DHT22;1971;51.778;10.330;2023-11-19T00:49:31;4.70;99.90
3912;DHT22;1971;51.778;10.330;2023-11-19T00:52:02;4.50;99.90
3912;DHT22;1971;51.778;10.330;2023-11-19T00:54:33;4.60;99.90
3912;DHT22;1971;51.778;10.330;2023-11-19T00:57:04;4.60;99.90
3912;DHT22;1971;51.778;10.330;2023-11-19T00:59:34;4.70;99.90
3912;DHT22;1971;51.778;10.330;2023-11-19T01:02:04;4.40;99.90
3912;DHT22;1971;51.778;10.330;2023-11-19T01:04:38;4.50;99.90
3912;DHT22;1971;51.778;10.330;2023-11-19T01:07:08;4.50;99.90
3912;DHT22;1971;51.778;10.330;2023-11-19T01:09:42;4.50;99.90
3912;DHT22;1971;51.778;10.330;2023-11-19T01:12:12;4.70;99.90
3912;DHT22;1971;51.778;10.330;2023-11-19T01:14:42;4.80;99.90
3912;DHT22;1971;51.778;10.330;2023-11-19T01:17:13;4.60;99.90
3912;DHT22;1971;51.778;10.330;2023-11-19T01:19:47;4.50;99.90
3912;DHT22;1971;51.778;10.330;2023-11-19T01:22:18;4.60;99.90
3912;DHT22;1971;51.778;10.330;2023-11-19T01:24:48;4.80;99.90
3912;DHT22;1971;51.778;10.330;2023-11-19T01:27:19;4.80;99.90
3912;DHT22;1971;51.778;10.330;2023-11-19T01:29:50;4.70;99.90
3912;DHT22;1971;51.778;10.330;2023-11-19T01:32:21;4.70;99.90
3912;DHT22;1971;51.778;10.330;2023-11-19T01:34:54;4.80;99.90
3912;DHT22;1971;51.778;10.330;2023-11-19T01:37:25;4.80;99.90
3912;DHT22;1971;51.778;10.330;2023-11-19T01:39:55;5.10;99.90
3912;DHT22;1971;51.778;10.330;2023-11-19T01:42:25;4.70;99.90
3912;DHT22;1971;51.778;10.330;2023-11-19T01:44:58;5.10;99.90
3912;DHT22;1971;51.778;10.330;2023-11-19T01:47:30;5.00;99.90
3912;DHT22;1971;51.778;10.330;2023-11-19T01:50:03;5.00;99.90
3912;DHT22;1971;51.778;10.330;2023-11-19T01:52:36;4.90;99.90
3912;DHT22;1971;51.778;10.330;2023-11-19T01:55:08;4.80;99.90
3912;DHT22;1971;51.778;10.330;2023-11-19T01:57:40;5.00;99.90
3912;DHT22;1971;51.778;10.330;2023-11-19T02:00:12;4.90;99.90
3912;DHT22;1971;51.778;10.330;2023-11-19T02:02:43;5.20;99.90
3912;DHT22;1971;51.778;10.330;2023-11-19T02:05:17;4.90;99.90
3912;DHT22;1971;51.778;10.330;2023-11-19T02:07:48;5.10;99.90
3912;DHT22;1971;51.778;10.330;2023-11-19T02:10:19;4.90;99.90
3912;DHT22;1971;51.778;10.330;2023-11-19T02:12:52;5.20;99.90
3912;DHT22;1971;51.778;10.330;2023-11-19T02:15:33;4.90;99.90
3912;DHT22;1971;51.778;10.330;2023-11-19T02:18:18;5.20;99.90
3912;DHT22;1971;51.778;10.330;2023-11-19T02:20:52;5.30;99.90
3912;DHT22;1971;51.778;10.330;2023-11-19T02:23:23;5.00;99.90
3912;DHT22;1971;51.778;10.330;2023-11-19T02:26:02;4.90;99.90
3912;DHT22;1971;51.778;10.330;2023-11-19T02:28:36;5.40;99.90
3912;DHT22;1971;51.778;10.330;2023-11-19T02:31:07;5.20;99.90
3912;DHT22;1971;51.778;10.330;2023-11-19T02:33:38;4.90;99.90
3912;DHT22;1971;51.778;10.330;2023-11-19T02:36:09;4.90;99.90
3912;DHT22;1971;51.778;10.330;2023-11-19T02:38:40;5.40;99.90
3912;DHT22;1971;51.778;10.330;2023-11-19T02:41:10;5.10;99.90
3912;DHT22;1971;51.778;10.330;2023-11-19T02:43:43;5.40;99.90
3912;DHT22;1971;51.778;10.330;2023-11-19T02:46:16;5.50;99.90
3912;DHT22;1971;51.778;10.330;2023-11-19T02:48:47;5.00;99.90
3912;DHT22;1971;51.778;10.330;2023-11-19T02:51:17;5.30;99.90
3912;DHT22;1971;51.778;10.330;2023-11-19T02:53:47;5.40;99.90
3912;DHT22;1971;51.778;10.330;2023-11-19T02:56:18;5.40;99.90
3912;DHT22;1971;51.778;10.330;2023-11-19T02:58:56;5.40;99.90
3912;DHT22;1971;51.778;10.330;2023-11-19T03:01:27;5.10;99.90
3912;DHT22;1971;51.778;10.330;2023-11-19T03:04:02;5.40;99.90
3912;DHT22;1971;51.778;10.330;2023-11-19T03:06:32;5.30;99.90
3912;DHT22;1971;51.778;10.330;2023-11-19T03:09:03;5.30;99.90
3912;DHT22;1971;51.778;10.330;2023-11-19T03:11:39;5.50;99.90
3912;DHT22;1971;51.778;10.330;2023-11-19T03:14:13;5.40;99.90
3912;DHT22;1971;51.778;10.330;2023-11-19T03:16:45;5.40;99.90
3912;DHT22;1971;51.778;10.330;2023-11-19T03:19:16;5.70;99.90
3912;DHT22;1971;51.778;10.330;2023-11-19T03:21:49;5.50;99.90
3912;DHT22;1971;51.778;10.330;2023-11-19T03:24:20;5.60;99.90
3912;DHT22;1971;51.778;10.330;2023-11-19T03:26:52;5.50;99.90
3912;DHT22;1971;51.778;10.330;2023-11-19T03:29:25;5.70;99.90
3912;DHT22;1971;51.778;10.330;2023-11-19T03:31:55;5.40;99.90
3912;DHT22;1971;51.778;10.330;2023-11-19T03:34:25;5.50;99.90
3912;DHT22;1971;51.778;10.330;2023-11-19T03:36:56;5.60;99.90
3912;DHT22;1971;51.778;10.330;2023-11-19T03:39:28;5.70;99.90
3912;DHT22;1971;51.778;10.330;2023-11-19T03:41:59;5.80;99.90
3912;DHT22;1971;51.778;10.330;2023-11-19T03:44:33;5.50;99.90
3912;DHT22;1971;51.778;10.330;2023-11-19T03:47:04;5.80;99.90
3912;DHT22;1971;51.778;10.330;2023-11-19T03:49:34;5.60;99.90
3912;DHT22;1971;51.778;10.330;2023-11-19T03:52:05;5.80;99.90
3912;DHT22;1971;51.778;10.330;2023-11-19T03:54:47;5.70;99.90
3912;DHT22;1971;51.778;10.330;2023-11-19T03:57:17;6.00;99.90
3912;DHT22;1971;51.778;10.330;2023-11-19T03:59:50;5.90;99.90
3912;DHT22;1971;51.778;10.330;2023-11-19T04:02:21;6.10;99.90
3912;DHT22;1971;51.778;10.330;2023-11-19T04:04:55;5.90;99.90
3912;DHT22;1971;51.778;10.330;2023-11-19T04:07:25;5.80;99.90
3912;DHT22;1971;51.778;10.330;2023-11-19T04:09:55;5.80;99.90
3912;DHT22;1971;51.778;10.330;2023-11-19T04:12:25;6.00;99.90
3912;DHT22;1971;51.778;10.330;2023-11-19T04:14:58;5.80;99.90
3912;DHT22;1971;51.778;10.330;2023-11-19T04:17:29;6.10;99.90
3912;DHT22;1971;51.778;10.330;2023-11-19T04:19:59;6.20;99.90
3912;DHT22;1971;51.778;10.330;2023-11-19T04:22:31;6.00;99.90
3912;DHT22;1971;51.778;10.330;2023-11-19T04:25:02;6.10;99.90
3912;DHT22;1971;51.778;10.330;2023-11-19T04:27:32;6.00;99.90
3912;DHT22;1971;51.778;10.330;2023-11-19T04:30:06;6.50;99.90
3912;DHT22;1971;51.778;10.330;2023-11-19T04:32:38;6.00;99.90
3912;DHT22;1971;51.778;10.330;2023-11-19T04:35:09;6.40;99.90
3912;DHT22;1971;51.778;10.330;2023-11-19T04:37:39;6.10;99.90
3912;DHT22;1971;51.778;10.330;2023-11-19T04:40:10;6.10;99.90
3912;DHT22;1971;51.778;10.330;2023-11-19T04:42:40;6.00;99.90
3912;DHT22;1971;51.778;10.330;2023-11-19T04:45:13;6.40;99.90
3912;DHT22;1971;51.778;10.330;2023-11-19T04:47:44;6.20;99.90
3912;DHT22;1971;51.778;10.330;2023-11-19T04:50:14;6.40;99.90
3912;DHT22;1971;51.778;10.330;2023-11-19T04:52:44;6.30;99.90
3912;DHT22;1971;51.778;10.330;2023-11-19T04:55:15;6.20;99.90
3912;DHT22;1971;51.778;10.330;2023-11-19T04:57:46;6.30;99.90
3912;DHT22;1971;51.778;10.330;2023-11-19T05:00:18;6.50;99.90
3912;DHT22;1971;51.778;10.330;2023-11-19T05:02:50;6.40;99.90
3912;DHT22;1971;51.778;10.330;2023-11-19T05:05:20;6.30;99.90
3912;DHT22;1971;51.778;10.330;2023-11-19T05:07:50;6.40;99.90
3912;DHT22;1971;51.778;10.330;2023-11-19T05:10:22;6.50;99.90
3912;DHT22;1971;51.778;10.330;2023-11-19T05:12:52;6.40;99.90
3912;DHT22;1971;51.778;10.330;2023-11-19T05:15:26;6.40;99.90
3912;DHT22;1971;51.778;10.330;2023-11-19T05:17:56;6.50;99.90
3912;DHT22;1971;51.778;10.330;2023-11-19T05:20:26;6.50;99.90
3912;DHT22;1971;51.778;10.330;2023-11-19T05:22:56;6.60;99.90
3912;DHT22;1971;51.778;10.330;2023-11-19T05:25:27;6.90;99.90
3912;DHT22;1971;51.778;10.330;2023-11-19T05:27:57;6.60;99.90
3912;DHT22;1971;51.778;10.330;2023-11-19T05:30:30;6.60;99.90
3912;DHT22;1971;51.778;10.330;2023-11-19T05:33:01;6.90;99.90
3912;DHT22;1971;51.778;10.330;2023-11-19T05:35:31;6.90;99.90
3912;DHT22;1971;51.778;10.330;2023-11-19T05:38:02;6.70;99.90
3912;DHT22;1971;51.778;10.330;2023-11-19T05:40:33;6.80;99.90
3912;DHT22;1971;51.778;10.330;2023-11-19T05:43:06;6.80;99.90
3912;DHT22;1971;51.778;10.330;2023-11-19T05:45:38;6.80;99.90
3912;DHT22;1971;51.778;10.330;2023-11-19T05:48:09;6.90;99.90
3912;DHT22;1971;51.778;10.330;2023-11-19T05:50:39;7.10;99.90
3912;DHT22;1971;51.778;10.330;2023-11-19T05:53:10;7.20;99.90
3912;DHT22;1971;51.778;10.330;2023-11-19T05:55:42;6.90;99.90
3912;DHT22;1971;51.778;10.330;2023-11-19T05:58:24;7.10;99.90
3912;DHT22;1971;51.778;10.330;2023-11-19T06:00:59;7.20;99.90
3912;DHT22;1971;51.778;10.330;2023-11-19T06:03:31;7.20;99.90
3912;DHT22;1971;51.778;10.330;2023-11-19T06:06:01;7.10;99.90
3912;DHT22;1971;51.778;10.330;2023-11-19T06:08:32;7.10;99.90
3912;DHT22;1971;51.778;10.330;2023-11-19T06:11:03;7.00;99.90
3912;DHT22;1971;51.778;10.330;2023-11-19T06:13:33;7.30;99.90
3912;DHT22;1971;51.778;10.330;2023-11-19T06:16:07;7.10;99.90
3912;DHT22;1971;51.778;10.330;2023-11-19T06:18:37;7.10;99.90
3912;DHT22;1971;51.778;10.330;2023-11-19T06:21:08;7.00;99.90
3912;DHT22;1971;51.778;10.330;2023-11-19T06:23:39;7.10;99.90
3912;DHT22;1971;51.778;10.330;2023-11-19T06:26:09;7.10;99.90
3912;DHT22;1971;51.778;10.330;2023-11-19T06:28:39;6.90;99.90
3912;DHT22;1971;51.778;10.330;2023-11-19T06:31:12;7.10;99.90
3912;DHT22;1971;51.778;10.330;2023-11-19T06:33:43;7.30;99.90
3912;DHT22;1971;51.778;10.330;2023-11-19T06:36:14;7.20;99.90
3912;DHT22;1971;51.778;10.330;2023-11-19T06:38:45;7.20;99.90
3912;DHT22;1971;51.778;10.330;2023-11-19T06:41:15;7.20;99.90
3912;DHT22;1971;51.778;10.330;2023-11-19T06:43:46;7.50;99.90
3912;DHT22;1971;51.778;10.330;2023-11-19T06:46:19;7.50;99.90
3912;DHT22;1971;51.778;10.330;2023-11-19T06:48:49;7.40;99.90
3912;DHT22;1971;51.778;10.330;2023-11-19T06:51:20;7.40;99.90
3912;DHT22;1971;51.778;10.330;2023-11-19T06:53:52;7.50;99.90
3912;DHT22;1971;51.778;10.330;2023-11-19T06:56:23;7.40;99.90
3912;DHT22;1971;51.778;10.330;2023-11-19T06:58:54;7.40;99.90
3912;DHT22;1971;51.778;10.330;2023-11-19T07:01:27;7.40;99.90
3912;DHT22;1971;51.778;10.330;2023-11-19T07:03:57;7.40;99.90
3912;DHT22;1971;51.778;10.330;2023-11-19T07:06:28;7.40;99.90
3912;DHT22;1971;51.778;10.330;2023-11-19T07:09:02;7.40;99.90
3912;DHT22;1971;51.778;10.330;2023-11-19T07:11:37;7.60;99.90
3912;DHT22;1971;51.778;10.330;2023-11-19T07:14:08;7.40;99.90
3912;DHT22;1971;51.778;10.330;2023-11-19T07:16:41;7.60;99.90
3912;DHT22;1971;51.778;10.330;2023-11-19T07:19:11;7.40;99.90
3912;DHT22;1971;51.778;10.330;2023-11-19T07:21:42;7.40;99.90
3912;DHT22;1971;51.778;10.330;2023-11-19T07:24:13;7.40;99.90
3912;DHT22;1971;51.778;10.330;2023-11-19T07:26:45;7.70;99.90
3912;DHT22;1971;51.778;10.330;2023-11-19T07:29:15;7.40;99.90
3912;DHT22;1971;51.778;10.330;2023-11-19T07:31:51;7.50;99.90
3912;DHT22;1971;51.778;10.330;2023-11-19T07:34:21;7.40;99.90
3912;DHT22;1971;51.778;10.330;2023-11-19T07:36:52;7.40;99.90
3912;DHT22;1971;51.778;10.330;2023-11-19T07:39:25;7.70;99.90
3912;DHT22;1971;51.778;10.330;2023-11-19T07:41:55;7.60;99.90
3912;DHT22;1971;51.778;10.330;2023-11-19T07:44:26;7.70;99.90
3912;DHT22;1971;51.778;10.330;2023-11-19T07:46:58;7.50;99.90
3912;DHT22;1971;51.778;10.330;2023-11-19T07:49:28;7.70;99.90
3912;DHT22;1971;51.778;10.330;2023-11-19T07:51:59;7.40;99.90
3912;DHT22;1971;51.778;10.330;2023-11-19T07:54:30;7.40;99.90
3912;DHT22;1971;51.778;10.330;2023-11-19T07:57:00;7.40;99.90
3912;DHT22;1971;51.778;10.330;2023-11-19T07:59:31;7.50;99.90
3912;DHT22;1971;51.778;10.330;2023-11-19T08:02:04;7.40;99.90
3912;DHT22;1971;51.778;10.330;2023-11-19T08:04:34;7.60;99.90
3912;DHT22;1971;51.778;10.330;2023-11-19T08:07:07;7.60;99.90
3912;DHT22;1971;51.778;10.330;2023-11-19T08:09:37;7.40;99.90
3912;DHT22;1971;51.778;10.330;2023-11-19T08:12:07;7.60;99.90
3912;DHT22;1971;51.778;10.330;2023-11-19T08:14:38;7.40;99.90
3912;DHT22;1971;51.778;10.330;2023-11-19T08:17:10;7.80;99.90
3912;DHT22;1971;51.778;10.330;2023-11-19T08:19:41;8.10;99.90
3912;DHT22;1971;51.778;10.330;2023-11-19T08:22:11;8.10;99.90
3912;DHT22;1971;51.778;10.330;2023-11-19T08:24:41;7.80;99.90
3912;DHT22;1971;51.778;10.330;2023-11-19T08:27:11;7.60;99.90
3912;DHT22;1971;51.778;10.330;2023-11-19T08:29:41;7.80;99.90
3912;DHT22;1971;51.778;10.330;2023-11-19T08:32:15;7.50;99.90
3912;DHT22;1971;51.778;10.330;2023-11-19T08:34:45;7.80;99.90
3912;DHT22;1971;51.778;10.330;2023-11-19T08:37:15;7.50;99.90
3912;DHT22;1971;51.778;10.330;2023-11-19T08:39:49;7.50;99.90
3912;DHT22;1971;51.778;10.330;2023-11-19T08:42:19;7.80;99.90
3912;DHT22;1971;51.778;10.330;2023-11-19T08:44:50;7.50;99.90
3912;DHT22;1971;51.778;10.330;2023-11-19T08:47:24;7.50;99.90
3912;DHT22;1971;51.778;10.330;2023-11-19T08:49:54;7.50;99.90
3912;DHT22;1971;51.778;10.330;2023-11-19T08:52:28;7.60;99.90
3912;DHT22;1971;51.778;10.330;2023-11-19T08:55:01;7.50;99.90
3912;DHT22;1971;51.778;10.330;2023-11-19T08:57:32;7.70;99.90
3912;DHT22;1971;51.778;10.330;2023-11-19T09:00:03;7.60;99.90
3912;DHT22;1971;51.778;10.330;2023-11-19T09:02:37;7.60;99.90
3912;DHT22;1971;51.778;10.330;2023-11-19T09:05:08;7.70;99.90
3912;DHT22;1971;51.778;10.330;2023-11-19T09:07:40;8.00;99.90
3912;DHT22;1971;51.778;10.330;2023-11-19T09:10:10;7.60;99.90
3912;DHT22;1971;51.778;10.330;2023-11-19T09:12:40;7.80;99.90
3912;DHT22;1971;51.778;10.330;2023-11-19T09:15:10;7.80;99.90
3912;DHT22;1971;51.778;10.330;2023-11-19T09:17:43;7.80;99.90
3912;DHT22;1971;51.778;10.330;2023-11-19T09:20:14;8.20;99.90
3912;DHT22;1971;51.778;10.330;2023-11-19T09:22:45;8.00;99.90
3912;DHT22;1971;51.778;10.330;2023-11-19T09:25:15;8.20;99.90
3912;DHT22;1971;51.778;10.330;2023-11-19T09:27:46;8.00;99.90
3912;DHT22;1971;51.778;10.330;2023-11-19T09:30:19;8.20;99.90
3912;DHT22;1971;51.778;10.330;2023-11-19T09:32:53;7.90;99.90
3912;DHT22;1971;51.778;10.330;2023-11-19T09:35:23;8.00;99.90
3912;DHT22;1971;51.778;10.330;2023-11-19T09:37:53;8.00;99.90
3912;DHT22;1971;51.778;10.330;2023-11-19T09:40:24;7.90;99.90
3912;DHT22;1971;51.778;10.330;2023-11-19T09:42:55;8.00;99.90
3912;DHT22;1971;51.778;10.330;2023-11-19T09:45:28;7.90;99.90
3912;DHT22;1971;51.778;10.330;2023-11-19T09:48:02;8.00;99.90
3912;DHT22;1971;51.778;10.330;2023-11-19T09:50:32;8.20;99.90
3912;DHT22;1971;51.778;10.330;2023-11-19T09:53:03;8.10;99.90
3912;DHT22;1971;51.778;10.330;2023-11-19T09:55:33;8.00;99.90
3912;DHT22;1971;51.778;10.330;2023-11-19T09:58:03;8.00;99.90
3912;DHT22;1971;51.778;10.330;2023-11-19T10:00:34;8.10;99.90
3912;DHT22;1971;51.778;10.330;2023-11-19T10:03:07;7.90;99.90
3912;DHT22;1971;51.778;10.330;2023-11-19T10:05:40;8.00;99.90
3912;DHT22;1971;51.778;10.330;2023-11-19T10:08:11;8.20;99.90
3912;DHT22;1971;51.778;10.330;2023-11-19T10:10:41;7.90;99.90
3912;DHT22;1971;51.778;10.330;2023-11-19T10:13:11;7.90;99.90
3912;DHT22;1971;51.778;10.330;2023-11-19T10:15:44;7.90;99.90
3912;DHT22;1971;51.778;10.330;2023-11-19T10:18:17;8.10;99.90
3912;DHT22;1971;51.778;10.330;2023-11-19T10:20:47;7.90;99.90
3912;DHT22;1971;51.778;10.330;2023-11-19T10:23:17;8.00;99.90
3912;DHT22;1971;51.778;10.330;2023-11-19T10:25:47;8.40;99.90
3912;DHT22;1971;51.778;10.330;2023-11-19T10:28:18;8.00;99.90
3912;DHT22;1971;51.778;10.330;2023-11-19T10:30:49;8.10;99.90
3912;DHT22;1971;51.778;10.330;2023-11-19T10:33:30;8.20;99.90
3912;DHT22;1971;51.778;10.330;2023-11-19T10:36:00;8.30;99.90
3912;DHT22;1971;51.778;10.330;2023-11-19T10:38:30;8.40;99.90
3912;DHT22;1971;51.778;10.330;2023-11-19T10:41:00;8.20;99.90
3912;DHT22;1971;51.778;10.330;2023-11-19T10:43:41;8.20;99.90
3912;DHT22;1971;51.778;10.330;2023-11-19T10:46:13;8.20;99.90
3912;DHT22;1971;51.778;10.330;2023-11-19T10:48:50;8.30;99.90
3912;DHT22;1971;51.778;10.330;2023-11-19T10:51:21;8.30;99.90
3912;DHT22;1971;51.778;10.330;2023-11-19T10:53:51;8.30;99.90
3912;DHT22;1971;51.778;10.330;2023-11-19T10:56:25;8.10;99.90
3912;DHT22;1971;51.778;10.330;2023-11-19T10:59:00;8.30;99.90
3912;DHT22;1971;51.778;10.330;2023-11-19T11:01:52;8.30;99.90
3912;DHT22;1971;51.778;10.330;2023-11-19T11:04:26;8.40;99.90
3912;DHT22;1971;51.778;10.330;2023-11-19T11:07:00;8.00;99.90
3912;DHT22;1971;51.778;10.330;2023-11-19T11:09:31;8.00;99.90
3912;DHT22;1971;51.778;10.330;2023-11-19T11:12:04;8.40;99.90
3912;DHT22;1971;51.778;10.330;2023-11-19T11:14:38;8.00;99.90
3912;DHT22;1971;51.778;10.330;2023-11-19T11:17:09;8.30;99.90
3912;DHT22;1971;51.778;10.330;2023-11-19T11:19:44;8.20;99.90
3912;DHT22;1971;51.778;10.330;2023-11-19T11:22:16;8.10;99.90
3912;DHT22;1971;51.778;10.330;2023-11-19T11:25:11;8.20;99.90
3912;DHT22;1971;51.778;10.330;2023-11-19T11:28:04;8.20;99.90
3912;DHT22;1971;51.778;10.330;2023-11-19T11:30:53;8.20;99.90
3912;DHT22;1971;51.778;10.330;2023-11-19T11:33:35;8.30;99.90
3912;DHT22;1971;51.778;10.330;2023-11-19T11:36:19;8.20;99.90
3912;DHT22;1971;51.778;10.330;2023-11-19T11:38:50;8.20;99.90
3912;DHT22;1971;51.778;10.330;2023-11-19T11:41:21;8.60;99.90
3912;DHT22;1971;51.778;10.330;2023-11-19T11:43:56;8.60;99.90
3912;DHT22;1971;51.778;10.330;2023-11-19T11:46:55;8.30;99.90
3912;DHT22;1971;51.778;10.330;2023-11-19T11:49:26;8.30;99.90
3912;DHT22;1971;51.778;10.330;2023-11-19T11:52:06;8.60;99.90
3912;DHT22;1971;51.778;10.330;2023-11-19T11:54:41;8.60;99.90
3912;DHT22;1971;51.778;10.330;2023-11-19T11:57:12;8.50;99.90
3912;DHT22;1971;51.778;10.330;2023-11-19T11:59:47;8.80;99.90
3912;DHT22;1971;51.778;10.330;2023-11-19T12:02:18;8.80;99.90
3912;DHT22;1971;51.778;10.330;2023-11-19T12:04:50;8.90;99.90
3912;DHT22;1971;51.778;10.330;2023-11-19T12:07:24;9.00;99.90
3912;DHT22;1971;51.778;10.330;2023-11-19T12:10:06;9.00;99.90
3912;DHT22;1971;51.778;10.330;2023-11-19T12:12:40;8.90;99.90
3912;DHT22;1971;51.778;10.330;2023-11-19T12:15:10;8.80;99.90
3912;DHT22;1971;51.778;10.330;2023-11-19T12:17:51;8.70;99.90
3912;DHT22;1971;51.778;10.330;2023-11-19T12:20:22;8.60;99.90
3912;DHT22;1971;51.778;10.330;2023-11-19T12:23:04;8.60;99.90
3912;DHT22;1971;51.778;10.330;2023-11-19T12:25:36;8.50;99.90
3912;DHT22;1971;51.778;10.330;2023-11-19T12:28:12;8.40;99.90
3912;DHT22;1971;51.778;10.330;2023-11-19T12:30:44;8.40;99.90
3912;DHT22;1971;51.778;10.330;2023-11-19T12:33:15;8.40;99.90
3912;DHT22;1971;51.778;10.330;2023-11-19T12:35:48;8.70;99.90
3912;DHT22;1971;51.778;10.330;2023-11-19T12:38:21;8.40;99.90
3912;DHT22;1971;51.778;10.330;2023-11-19T12:41:05;8.70;99.90
3912;DHT22;1971;51.778;10.330;2023-11-19T12:43:38;8.70;99.90
3912;DHT22;1971;51.778;10.330;2023-11-19T12:46:19;8.60;99.90
3912;DHT22;1971;51.778;10.330;2023-11-19T12:48:51;8.60;99.90
3912;DHT22;1971;51.778;10.330;2023-11-19T12:51:21;8.40;99.90
3912;DHT22;1971;51.778;10.330;2023-11-19T12:53:54;8.70;99.90
3912;DHT22;1971;51.778;10.330;2023-11-19T12:56:25;8.60;99.90
3912;DHT22;1971;51.778;10.330;2023-11-19T12:58:57;8.50;99.90
3912;DHT22;1971;51.778;10.330;2023-11-19T13:01:27;8.50;99.90
3912;DHT22;1971;51.778;10.330;2023-11-19T13:04:06;8.60;99.90
3912;DHT22;1971;51.778;10.330;2023-11-19T13:06:45;8.40;99.90
3912;DHT22;1971;51.778;10.330;2023-11-19T13:09:26;8.40;99.90
3912;DHT22;1971;51.778;10.330;2023-11-19T13:11:56;8.40;99.90
3912;DHT22;1971;51.778;10.330;2023-11-19T13:14:36;8.30;99.90
3912;DHT22;1971;51.778;10.330;2023-11-19T13:17:13;8.60;99.90
3912;DHT22;1971;51.778;10.330;2023-11-19T13:19:43;8.60;99.90
3912;DHT22;1971;51.778;10.330;2023-11-19T13:22:13;8.30;99.90
3912;DHT22;1971;51.778;10.330;2023-11-19T13:24:46;8.20;99.90
3912;DHT22;1971;51.778;10.330;2023-11-19T13:27:17;8.20;99.90
3912;DHT22;1971;51.778;10.330;2023-11-19T13:29:47;8.30;99.90
3912;DHT22;1971;51.778;10.330;2023-11-19T13:32:17;8.20;99.90
3912;DHT22;1971;51.778;10.330;2023-11-19T13:34:47;8.10;99.90
3912;DHT22;1971;51.778;10.330;2023-11-19T13:37:18;7.80;99.90
3912;DHT22;1971;51.778;10.330;2023-11-19T13:39:51;7.80;99.90
3912;DHT22;1971;51.778;10.330;2023-11-19T13:42:21;7.90;99.90
3912;DHT22;1971;51.778;10.330;2023-11-19T13:44:51;7.80;99.90
3912;DHT22;1971;51.778;10.330;2023-11-19T13:47:22;8.00;99.90
3912;DHT22;1971;51.778;10.330;2023-11-19T13:49:53;7.70;99.90
3912;DHT22;1971;51.778;10.330;2023-11-19T13:52:23;7.90;99.90
3912;DHT22;1971;51.778;10.330;2023-11-19T13:54:56;7.80;99.90
3912;DHT22;1971;51.778;10.330;2023-11-19T13:57:30;7.80;99.90
3912;DHT22;1971;51.778;10.330;2023-11-19T14:00:01;7.80;99.90
3912;DHT22;1971;51.778;10.330;2023-11-19T14:02:39;7.80;99.90
3912;DHT22;1971;51.778;10.330;2023-11-19T14:05:09;7.80;99.90
3912;DHT22;1971;51.778;10.330;2023-11-19T14:07:41;7.80;99.90
3912;DHT22;1971;51.778;10.330;2023-11-19T14:10:14;7.90;99.90
3912;DHT22;1971;51.778;10.330;2023-11-19T14:12:44;7.90;99.90
3912;DHT22;1971;51.778;10.330;2023-11-19T14:15:14;8.20;99.90
3912;DHT22;1971;51.778;10.330;2023-11-19T14:17:44;8.20;99.90
3912;DHT22;1971;51.778;10.330;2023-11-19T14:20:15;7.80;99.90
3912;DHT22;1971;51.778;10.330;2023-11-19T14:22:45;7.80;99.90
3912;DHT22;1971;51.778;10.330;2023-11-19T14:25:20;7.80;99.90
3912;DHT22;1971;51.778;10.330;2023-11-19T14:27:51;7.80;99.90
3912;DHT22;1971;51.778;10.330;2023-11-19T14:30:21;7.90;99.90
3912;DHT22;1971;51.778;10.330;2023-11-19T14:32:51;7.70;99.90
3912;DHT22;1971;51.778;10.330;2023-11-19T14:35:22;7.70;99.90
3912;DHT22;1971;51.778;10.330;2023-11-19T14:37:52;7.70;99.90
3912;DHT22;1971;51.778;10.330;2023-11-19T14:40:25;7.70;99.90
3912;DHT22;1971;51.778;10.330;2023-11-19T14:42:58;7.70;99.90
3912;DHT22;1971;51.778;10.330;2023-11-19T14:45:29;7.70;99.90
3912;DHT22;1971;51.778;10.330;2023-11-19T14:48:11;7.70;99.90
3912;DHT22;1971;51.778;10.330;2023-11-19T14:50:41;7.80;99.90
3912;DHT22;1971;51.778;10.330;2023-11-19T14:53:11;7.70;99.90
3912;DHT22;1971;51.778;10.330;2023-11-19T14:55:45;7.70;99.90
3912;DHT22;1971;51.778;10.330;2023-11-19T14:58:15;7.90;99.90
3912;DHT22;1971;51.778;10.330;2023-11-19T15:00:46;7.50;99.90
3912;DHT22;1971;51.778;10.330;2023-11-19T15:03:16;7.50;99.90
3912;DHT22;1971;51.778;10.330;2023-11-19T15:05:46;7.80;99.90
3912;DHT22;1971;51.778;10.330;2023-11-19T15:08:18;7.50;99.90
3912;DHT22;1971;51.778;10.330;2023-11-19T15:10:51;7.30;99.90
3912;DHT22;1971;51.778;10.330;2023-11-19T15:13:21;7.40;99.90
3912;DHT22;1971;51.778;10.330;2023-11-19T15:15:51;7.50;99.90
3912;DHT22;1971;51.778;10.330;2023-11-19T15:18:22;7.60;99.90
3912;DHT22;1971;51.778;10.330;2023-11-19T15:20:53;7.20;99.90
3912;DHT22;1971;51.778;10.330;2023-11-19T15:23:23;7.50;99.90
3912;DHT22;1971;51.778;10.330;2023-11-19T15:25:56;7.30;99.90
3912;DHT22;1971;51.778;10.330;2023-11-19T15:28:27;7.50;99.90
3912;DHT22;1971;51.778;10.330;2023-11-19T15:30:57;7.30;99.90
3912;DHT22;1971;51.778;10.330;2023-11-19T15:33:27;7.30;99.90
3912;DHT22;1971;51.778;10.330;2023-11-19T15:35:57;7.30;99.90
3912;DHT22;1971;51.778;10.330;2023-11-19T15:38:27;7.60;99.90
3912;DHT22;1971;51.778;10.330;2023-11-19T15:41:00;7.30;99.90
3912;DHT22;1971;51.778;10.330;2023-11-19T15:43:31;7.30;99.90
3912;DHT22;1971;51.778;10.330;2023-11-19T15:46:05;7.30;99.90
3912;DHT22;1971;51.778;10.330;2023-11-19T15:48:35;7.50;99.90
3912;DHT22;1971;51.778;10.330;2023-11-19T15:51:06;7.60;99.90
3912;DHT22;1971;51.778;10.330;2023-11-19T15:53:36;7.60;99.90
3912;DHT22;1971;51.778;10.330;2023-11-19T15:56:09;7.40;99.90
3912;DHT22;1971;51.778;10.330;2023-11-19T15:58:39;7.60;99.90
3912;DHT22;1971;51.778;10.330;2023-11-19T16:01:09;7.60;99.90
3912;DHT22;1971;51.778;10.330;2023-11-19T16:03:39;7.50;99.90
3912;DHT22;1971;51.778;10.330;2023-11-19T16:06:13;7.90;99.90
3912;DHT22;1971;51.778;10.330;2023-11-19T16:08:43;7.60;99.90
3912;DHT22;1971;51.778;10.330;2023-11-19T16:11:17;7.90;99.90
3912;DHT22;1971;51.778;10.330;2023-11-19T16:13:48;7.50;99.90
3912;DHT22;1971;51.778;10.330;2023-11-19T16:16:18;7.50;99.90
3912;DHT22;1971;51.778;10.330;2023-11-19T16:18:49;7.50;99.90
3912;DHT22;1971;51.778;10.330;2023-11-19T16:21:19;7.50;99.90
3912;DHT22;1971;51.778;10.330;2023-11-19T16:23:49;7.50;99.90
3912;DHT22;1971;51.778;10.330;2023-11-19T16:26:22;7.50;99.90
3912;DHT22;1971;51.778;10.330;2023-11-19T16:28:53;7.50;99.90
3912;DHT22;1971;51.778;10.330;2023-11-19T16:31:24;7.50;99.90
3912;DHT22;1971;51.778;10.330;2023-11-19T16:33:55;7.50;99.90